sensor_id;sensor_type;location;lat;lon;timestamp;temperature;humidity
43320;DHT22;28914;48.722;9.332;2023-10-08T00:03:37;14.40;70.70
43320;DHT22;28914;48.722;9.332;2023-10-08T00:08:56;14.40;70.80
43320;DHT22;28914;48.722;9.332;2023-10-08T00:14:19;14.40;71.40
43320;DHT22;28914;48.722;9.332;2023-10-08T00:19:40;14.40;71.40
43320;DHT22;28914;48.722;9.332;2023-10-08T00:25:01;14.50;71.40
43320;DHT22;28914;48.722;9.332;2023-10-08T00:30:20;14.50;71.30
43320;DHT22;28914;48.722;9.332;2023-10-08T00:35:41;14.60;71.60
43320;DHT22;28914;48.722;9.332;2023-10-08T00:41:00;14.70;71.60
43320;DHT22;28914;48.722;9.332;2023-10-08T00:46:19;14.70;71.50
43320;DHT22;28914;48.722;9.332;2023-10-08T00:51:42;14.70;71.60
43320;DHT22;28914;48.722;9.332;2023-10-08T00:57:04;14.80;71.70
43320;DHT22;28914;48.722;9.332;2023-10-08T01:02:30;14.80;71.60
43320;DHT22;28914;48.722;9.332;2023-10-08T01:08:04;14.80;71.60
43320;DHT22;28914;48.722;9.332;2023-10-08T01:13:26;14.80;71.50
43320;DHT22;28914;48.722;9.332;2023-10-08T01:18:54;14.80;71.60
43320;DHT22;28914;48.722;9.332;2023-10-08T01:24:13;14.90;71.90
43320;DHT22;28914;48.722;9.332;2023-10-08T01:29:35;14.90;71.50
43320;DHT22;28914;48.722;9.332;2023-10-08T01:34:55;14.90;71.40
43320;DHT22;28914;48.722;9.332;2023-10-08T01:40:15;14.90;71.40
43320;DHT22;28914;48.722;9.332;2023-10-08T01:45:36;14.90;71.40
43320;DHT22;28914;48.722;9.332;2023-10-08T01:50:59;14.80;71.30
43320;DHT22;28914;48.722;9.332;2023-10-08T01:56:20;14.80;71.40
43320;DHT22;28914;48.722;9.332;2023-10-08T02:01:40;14.70;71.40
43320;DHT22;28914;48.722;9.332;2023-10-08T02:07:00;14.70;71.60
43320;DHT22;28914;48.722;9.332;2023-10-08T02:12:19;14.60;71.60
43320;DHT22;28914;48.722;9.332;2023-10-08T02:17:38;14.60;71.70
43320;DHT22;28914;48.722;9.332;2023-10-08T02:22:57;14.50;71.70
43320;DHT22;28914;48.722;9.332;2023-10-08T02:28:16;14.50;71.80
43320;DHT22;28914;48.722;9.332;2023-10-08T02:33:39;14.40;72.10
43320;DHT22;28914;48.722;9.332;2023-10-08T02:38:58;14.30;71.90
43320;DHT22;28914;48.722;9.332;2023-10-08T02:44:17;14.20;72.00
43320;DHT22;28914;48.722;9.332;2023-10-08T02:49:37;14.10;72.00
43320;DHT22;28914;48.722;9.332;2023-10-08T02:54:59;14.10;72.20
43320;DHT22;28914;48.722;9.332;2023-10-08T03:00:19;14.00;72.40
43320;DHT22;28914;48.722;9.332;2023-10-08T03:05:39;13.90;72.50
43320;DHT22;28914;48.722;9.332;2023-10-08T03:10:58;13.80;72.60
43320;DHT22;28914;48.722;9.332;2023-10-08T03:16:24;13.70;72.80
43320;DHT22;28914;48.722;9.332;2023-10-08T03:21:48;13.70;73.10
43320;DHT22;28914;48.722;9.332;2023-10-08T03:27:09;13.60;73.00
43320;DHT22;28914;48.722;9.332;2023-10-08T03:32:38;13.50;73.10
43320;DHT22;28914;48.722;9.332;2023-10-08T03:38:00;13.40;73.20
43320;DHT22;28914;48.722;9.332;2023-10-08T03:43:38;13.40;73.30
43320;DHT22;28914;48.722;9.332;2023-10-08T03:49:15;13.30;73.30
43320;DHT22;28914;48.722;9.332;2023-10-08T03:54:44;13.30;73.40
43320;DHT22;28914;48.722;9.332;2023-10-08T04:00:09;13.20;73.80
43320;DHT22;28914;48.722;9.332;2023-10-08T04:05:35;13.20;74.10
43320;DHT22;28914;48.722;9.332;2023-10-08T04:11:14;13.20;74.40
43320;DHT22;28914;48.722;9.332;2023-10-08T04:16:51;13.10;74.30
43320;DHT22;28914;48.722;9.332;2023-10-08T04:22:10;13.10;74.30
43320;DHT22;28914;48.722;9.332;2023-10-08T04:27:34;13.10;74.50
43320;DHT22;28914;48.722;9.332;2023-10-08T04:32:54;13.00;74.70
43320;DHT22;28914;48.722;9.332;2023-10-08T04:38:19;13.00;74.70
43320;DHT22;28914;48.722;9.332;2023-10-08T04:43:40;12.90;75.40
43320;DHT22;28914;48.722;9.332;2023-10-08T04:49:02;12.90;75.30
43320;DHT22;28914;48.722;9.332;2023-10-08T04:54:26;12.90;75.60
43320;DHT22;28914;48.722;9.332;2023-10-08T04:59:49;12.90;76.40
43320;DHT22;28914;48.722;9.332;2023-10-08T05:05:09;12.80;76.20
43320;DHT22;28914;48.722;9.332;2023-10-08T05:10:31;12.90;76.10
43320;DHT22;28914;48.722;9.332;2023-10-08T05:16:03;12.90;76.50
43320;DHT22;28914;48.722;9.332;2023-10-08T05:21:52;12.90;76.20
43320;DHT22;28914;48.722;9.332;2023-10-08T05:27:20;12.90;76.10
43320;DHT22;28914;48.722;9.332;2023-10-08T05:32:56;12.90;76.10
43320;DHT22;28914;48.722;9.332;2023-10-08T05:38:25;12.80;76.20
43320;DHT22;28914;48.722;9.332;2023-10-08T05:44:07;12.80;76.20
43320;DHT22;28914;48.722;9.332;2023-10-08T05:49:38;12.80;76.20
43320;DHT22;28914;48.722;9.332;2023-10-08T05:55:01;12.80;76.30
43320;DHT22;28914;48.722;9.332;2023-10-08T06:00:34;12.80;76.30
43320;DHT22;28914;48.722;9.332;2023-10-08T06:05:54;12.80;76.60
43320;DHT22;28914;48.722;9.332;2023-10-08T06:11:36;12.90;76.70
43320;DHT22;28914;48.722;9.332;2023-10-08T06:17:15;13.00;76.80
43320;DHT22;28914;48.722;9.332;2023-10-08T06:22:53;13.00;76.80
43320;DHT22;28914;48.722;9.332;2023-10-08T06:28:17;13.10;77.00
43320;DHT22;28914;48.722;9.332;2023-10-08T06:33:39;13.30;77.20
43320;DHT22;28914;48.722;9.332;2023-10-08T06:38:59;13.40;77.60
43320;DHT22;28914;48.722;9.332;2023-10-08T06:44:19;13.50;77.30
43320;DHT22;28914;48.722;9.332;2023-10-08T06:49:38;13.70;77.60
43320;DHT22;28914;48.722;9.332;2023-10-08T06:54:57;13.90;77.40
43320;DHT22;28914;48.722;9.332;2023-10-08T07:00:21;14.00;77.20
43320;DHT22;28914;48.722;9.332;2023-10-08T07:05:58;14.20;77.00
43320;DHT22;28914;48.722;9.332;2023-10-08T07:11:18;14.40;76.60
43320;DHT22;28914;48.722;9.332;2023-10-08T07:16:37;14.40;76.10
43320;DHT22;28914;48.722;9.332;2023-10-08T07:22:00;14.60;76.00
43320;DHT22;28914;48.722;9.332;2023-10-08T07:27:25;14.60;76.20
43320;DHT22;28914;48.722;9.332;2023-10-08T07:32:49;14.90;76.40
43320;DHT22;28914;48.722;9.332;2023-10-08T07:38:09;15.20;76.40
43320;DHT22;28914;48.722;9.332;2023-10-08T07:43:28;15.60;76.20
43320;DHT22;28914;48.722;9.332;2023-10-08T07:48:52;16.00;75.70
43320;DHT22;28914;48.722;9.332;2023-10-08T07:54:12;16.50;75.70
43320;DHT22;28914;48.722;9.332;2023-10-08T07:59:36;16.90;75.00
43320;DHT22;28914;48.722;9.332;2023-10-08T08:04:57;17.40;74.40
43320;DHT22;28914;48.722;9.332;2023-10-08T08:10:16;17.80;73.70
43320;DHT22;28914;48.722;9.332;2023-10-08T08:15:37;18.20;72.30
43320;DHT22;28914;48.722;9.332;2023-10-08T08:21:01;18.50;70.80
43320;DHT22;28914;48.722;9.332;2023-10-08T08:26:24;18.80;70.10
43320;DHT22;28914;48.722;9.332;2023-10-08T08:31:46;19.10;70.80
43320;DHT22;28914;48.722;9.332;2023-10-08T08:37:05;19.60;70.00
43320;DHT22;28914;48.722;9.332;2023-10-08T08:42:26;20.20;66.60
43320;DHT22;28914;48.722;9.332;2023-10-08T08:47:47;20.80;67.30
43320;DHT22;28914;48.722;9.332;2023-10-08T08:53:07;21.70;67.70
43320;DHT22;28914;48.722;9.332;2023-10-08T08:58:26;22.80;67.40
43320;DHT22;28914;48.722;9.332;2023-10-08T09:03:45;24.30;67.80
43320;DHT22;28914;48.722;9.332;2023-10-08T09:09:07;26.60;67.80
43320;DHT22;28914;48.722;9.332;2023-10-08T09:14:42;29.20;63.30
43320;DHT22;28914;48.722;9.332;2023-10-08T09:20:04;31.60;58.20
43320;DHT22;28914;48.722;9.332;2023-10-08T09:25:26;33.80;55.80
43320;DHT22;28914;48.722;9.332;2023-10-08T09:30:47;35.80;53.20
43320;DHT22;28914;48.722;9.332;2023-10-08T09:36:09;37.80;50.40
43320;DHT22;28914;48.722;9.332;2023-10-08T09:41:38;39.50;46.10
43320;DHT22;28914;48.722;9.332;2023-10-08T09:52:31;39.20;39.30
43320;DHT22;28914;48.722;9.332;2023-10-08T09:57:52;38.30;38.60
43320;DHT22;28914;48.722;9.332;2023-10-08T10:03:14;37.20;38.50
43320;DHT22;28914;48.722;9.332;2023-10-08T10:08:34;35.90;38.90
43320;DHT22;28914;48.722;9.332;2023-10-08T10:13:59;34.60;38.80
43320;DHT22;28914;48.722;9.332;2023-10-08T10:19:21;33.30;39.40
43320;DHT22;28914;48.722;9.332;2023-10-08T10:24:41;32.30;41.10
43320;DHT22;28914;48.722;9.332;2023-10-08T10:30:03;31.50;42.00
43320;DHT22;28914;48.722;9.332;2023-10-08T10:35:28;31.00;42.70
43320;DHT22;28914;48.722;9.332;2023-10-08T10:40:50;30.50;42.90
43320;DHT22;28914;48.722;9.332;2023-10-08T10:46:28;30.00;43.60
43320;DHT22;28914;48.722;9.332;2023-10-08T10:51:51;29.50;44.30
43320;DHT22;28914;48.722;9.332;2023-10-08T10:57:16;29.10;45.00
43320;DHT22;28914;48.722;9.332;2023-10-08T11:02:45;28.60;45.80
43320;DHT22;28914;48.722;9.332;2023-10-08T11:08:08;28.20;46.40
43320;DHT22;28914;48.722;9.332;2023-10-08T11:13:27;27.90;47.10
43320;DHT22;28914;48.722;9.332;2023-10-08T11:18:56;27.60;47.90
43320;DHT22;28914;48.722;9.332;2023-10-08T11:24:29;27.40;48.50
43320;DHT22;28914;48.722;9.332;2023-10-08T11:29:49;27.30;49.10
43320;DHT22;28914;48.722;9.332;2023-10-08T11:35:17;27.20;49.30
43320;DHT22;28914;48.722;9.332;2023-10-08T11:40:38;27.20;49.90
43320;DHT22;28914;48.722;9.332;2023-10-08T11:46:08;27.40;50.30
43320;DHT22;28914;48.722;9.332;2023-10-08T11:51:32;27.50;48.80
43320;DHT22;28914;48.722;9.332;2023-10-08T11:56:52;27.70;48.90
43320;DHT22;28914;48.722;9.332;2023-10-08T12:02:12;28.10;48.70
43320;DHT22;28914;48.722;9.332;2023-10-08T12:07:35;28.50;48.30
43320;DHT22;28914;48.722;9.332;2023-10-08T12:12:57;28.90;48.20
43320;DHT22;28914;48.722;9.332;2023-10-08T12:18:18;29.20;47.40
43320;DHT22;28914;48.722;9.332;2023-10-08T12:23:43;29.40;47.10
43320;DHT22;28914;48.722;9.332;2023-10-08T12:29:04;29.60;46.80
43320;DHT22;28914;48.722;9.332;2023-10-08T12:34:25;29.60;46.40
43320;DHT22;28914;48.722;9.332;2023-10-08T12:39:48;29.50;46.50
43320;DHT22;28914;48.722;9.332;2023-10-08T12:45:31;29.30;46.30
43320;DHT22;28914;48.722;9.332;2023-10-08T12:50:50;29.10;46.30
43320;DHT22;28914;48.722;9.332;2023-10-08T12:56:15;28.90;46.50
43320;DHT22;28914;48.722;9.332;2023-10-08T13:01:35;28.70;46.70
43320;DHT22;28914;48.722;9.332;2023-10-08T13:06:56;28.50;47.10
43320;DHT22;28914;48.722;9.332;2023-10-08T13:12:16;28.30;47.50
43320;DHT22;28914;48.722;9.332;2023-10-08T13:17:35;28.00;47.80
43320;DHT22;28914;48.722;9.332;2023-10-08T13:22:54;27.80;48.10
43320;DHT22;28914;48.722;9.332;2023-10-08T13:28:14;27.60;49.10
43320;DHT22;28914;48.722;9.332;2023-10-08T13:33:33;27.50;48.80
43320;DHT22;28914;48.722;9.332;2023-10-08T13:38:52;27.40;48.90
43320;DHT22;28914;48.722;9.332;2023-10-08T13:44:14;27.40;49.20
43320;DHT22;28914;48.722;9.332;2023-10-08T13:49:33;27.30;48.70
43320;DHT22;28914;48.722;9.332;2023-10-08T13:54:53;27.30;49.10
43320;DHT22;28914;48.722;9.332;2023-10-08T14:00:12;27.20;49.40
43320;DHT22;28914;48.722;9.332;2023-10-08T14:05:34;27.10;49.80
43320;DHT22;28914;48.722;9.332;2023-10-08T14:10:53;27.00;50.10
43320;DHT22;28914;48.722;9.332;2023-10-08T14:16:15;26.90;50.30
43320;DHT22;28914;48.722;9.332;2023-10-08T14:21:36;26.80;50.50
43320;DHT22;28914;48.722;9.332;2023-10-08T14:27:03;26.70;50.60
43320;DHT22;28914;48.722;9.332;2023-10-08T14:32:28;26.60;50.50
43320;DHT22;28914;48.722;9.332;2023-10-08T14:37:48;26.60;50.10
43320;DHT22;28914;48.722;9.332;2023-10-08T14:43:26;26.50;49.80
43320;DHT22;28914;48.722;9.332;2023-10-08T14:48:48;26.50;49.50
43320;DHT22;28914;48.722;9.332;2023-10-08T14:54:08;26.40;49.40
43320;DHT22;28914;48.722;9.332;2023-10-08T14:59:27;26.40;49.40
43320;DHT22;28914;48.722;9.332;2023-10-08T15:04:49;26.30;49.50
43320;DHT22;28914;48.722;9.332;2023-10-08T15:10:09;26.30;49.50
43320;DHT22;28914;48.722;9.332;2023-10-08T15:15:29;26.20;49.40
43320;DHT22;28914;48.722;9.332;2023-10-08T15:20:53;26.20;49.40
43320;DHT22;28914;48.722;9.332;2023-10-08T15:26:13;26.10;49.70
43320;DHT22;28914;48.722;9.332;2023-10-08T15:31:32;26.10;50.00
43320;DHT22;28914;48.722;9.332;2023-10-08T15:36:51;26.00;50.80
43320;DHT22;28914;48.722;9.332;2023-10-08T15:42:11;25.90;51.20
43320;DHT22;28914;48.722;9.332;2023-10-08T15:47:30;25.80;51.60
43320;DHT22;28914;48.722;9.332;2023-10-08T15:52:50;25.70;51.40
43320;DHT22;28914;48.722;9.332;2023-10-08T15:58:09;25.60;52.10
43320;DHT22;28914;48.722;9.332;2023-10-08T16:03:28;25.50;52.60
43320;DHT22;28914;48.722;9.332;2023-10-08T16:08:48;25.30;52.70
43320;DHT22;28914;48.722;9.332;2023-10-08T16:14:07;25.20;53.20
43320;DHT22;28914;48.722;9.332;2023-10-08T16:19:27;25.00;53.40
43320;DHT22;28914;48.722;9.332;2023-10-08T16:24:46;24.80;53.80
43320;DHT22;28914;48.722;9.332;2023-10-08T16:30:05;24.70;54.10
43320;DHT22;28914;48.722;9.332;2023-10-08T16:35:29;24.60;54.40
43320;DHT22;28914;48.722;9.332;2023-10-08T16:40:49;24.40;54.60
43320;DHT22;28914;48.722;9.332;2023-10-08T16:46:08;24.10;54.70
43320;DHT22;28914;48.722;9.332;2023-10-08T16:51:28;23.90;55.00
43320;DHT22;28914;48.722;9.332;2023-10-08T16:56:47;23.60;55.30
43320;DHT22;28914;48.722;9.332;2023-10-08T17:02:06;23.40;55.60
43320;DHT22;28914;48.722;9.332;2023-10-08T17:07:25;23.10;55.90
43320;DHT22;28914;48.722;9.332;2023-10-08T17:12:45;22.70;56.40
43320;DHT22;28914;48.722;9.332;2023-10-08T17:18:04;22.50;56.60
43320;DHT22;28914;48.722;9.332;2023-10-08T17:23:24;22.20;57.00
43320;DHT22;28914;48.722;9.332;2023-10-08T17:28:44;21.90;57.60
43320;DHT22;28914;48.722;9.332;2023-10-08T17:34:03;21.60;57.70
43320;DHT22;28914;48.722;9.332;2023-10-08T17:39:24;21.40;58.10
43320;DHT22;28914;48.722;9.332;2023-10-08T17:44:44;21.20;58.50
43320;DHT22;28914;48.722;9.332;2023-10-08T17:50:05;21.00;58.90
43320;DHT22;28914;48.722;9.332;2023-10-08T17:55:25;20.80;59.20
43320;DHT22;28914;48.722;9.332;2023-10-08T18:00:44;20.50;59.60
43320;DHT22;28914;48.722;9.332;2023-10-08T18:06:03;20.40;59.90
43320;DHT22;28914;48.722;9.332;2023-10-08T18:11:23;20.20;60.30
43320;DHT22;28914;48.722;9.332;2023-10-08T18:16:43;20.00;60.70
43320;DHT22;28914;48.722;9.332;2023-10-08T18:22:02;19.90;61.20
43320;DHT22;28914;48.722;9.332;2023-10-08T18:27:22;19.70;61.60
43320;DHT22;28914;48.722;9.332;2023-10-08T18:32:41;19.50;62.00
43320;DHT22;28914;48.722;9.332;2023-10-08T18:38:00;19.40;62.20
43320;DHT22;28914;48.722;9.332;2023-10-08T18:43:19;19.30;62.60
43320;DHT22;28914;48.722;9.332;2023-10-08T18:48:39;19.10;62.90
43320;DHT22;28914;48.722;9.332;2023-10-08T18:54:00;19.00;63.00
43320;DHT22;28914;48.722;9.332;2023-10-08T18:59:19;18.90;63.30
43320;DHT22;28914;48.722;9.332;2023-10-08T19:04:38;18.80;63.70
43320;DHT22;28914;48.722;9.332;2023-10-08T19:09:58;18.70;64.00
43320;DHT22;28914;48.722;9.332;2023-10-08T19:15:19;18.50;64.10
43320;DHT22;28914;48.722;9.332;2023-10-08T19:20:41;18.40;64.50
43320;DHT22;28914;48.722;9.332;2023-10-08T19:26:00;18.30;65.00
43320;DHT22;28914;48.722;9.332;2023-10-08T19:31:19;18.20;65.20
43320;DHT22;28914;48.722;9.332;2023-10-08T19:36:38;18.10;65.70
43320;DHT22;28914;48.722;9.332;2023-10-08T19:41:59;18.00;65.90
43320;DHT22;28914;48.722;9.332;2023-10-08T19:47:18;17.90;66.00
43320;DHT22;28914;48.722;9.332;2023-10-08T19:52:38;17.80;66.20
43320;DHT22;28914;48.722;9.332;2023-10-08T19:57:58;17.70;66.60
43320;DHT22;28914;48.722;9.332;2023-10-08T20:03:18;17.60;66.80
43320;DHT22;28914;48.722;9.332;2023-10-08T20:08:39;17.50;67.10
43320;DHT22;28914;48.722;9.332;2023-10-08T20:13:58;17.40;67.20
43320;DHT22;28914;48.722;9.332;2023-10-08T20:19:18;17.30;67.60
43320;DHT22;28914;48.722;9.332;2023-10-08T20:24:37;17.20;68.00
43320;DHT22;28914;48.722;9.332;2023-10-08T20:29:57;17.10;68.00
43320;DHT22;28914;48.722;9.332;2023-10-08T20:35:17;17.00;68.30
43320;DHT22;28914;48.722;9.332;2023-10-08T20:40:37;16.90;68.50
43320;DHT22;28914;48.722;9.332;2023-10-08T20:45:59;16.90;68.70
43320;DHT22;28914;48.722;9.332;2023-10-08T20:51:19;16.80;68.80
43320;DHT22;28914;48.722;9.332;2023-10-08T20:56:38;16.70;69.10
43320;DHT22;28914;48.722;9.332;2023-10-08T21:01:58;16.60;69.30
43320;DHT22;28914;48.722;9.332;2023-10-08T21:07:17;16.50;69.50
43320;DHT22;28914;48.722;9.332;2023-10-08T21:12:36;16.40;69.60
43320;DHT22;28914;48.722;9.332;2023-10-08T21:17:56;16.40;69.80
43320;DHT22;28914;48.722;9.332;2023-10-08T21:23:16;16.30;70.20
43320;DHT22;28914;48.722;9.332;2023-10-08T21:28:35;16.30;70.90
43320;DHT22;28914;48.722;9.332;2023-10-08T21:33:54;16.20;71.50
43320;DHT22;28914;48.722;9.332;2023-10-08T21:39:14;16.10;71.50
43320;DHT22;28914;48.722;9.332;2023-10-08T21:44:35;16.00;71.70
43320;DHT22;28914;48.722;9.332;2023-10-08T21:49:54;15.90;71.90
43320;DHT22;28914;48.722;9.332;2023-10-08T21:55:14;15.90;72.50
43320;DHT22;28914;48.722;9.332;2023-10-08T22:00:37;15.80;72.10
43320;DHT22;28914;48.722;9.332;2023-10-08T22:06:05;15.80;72.20
43320;DHT22;28914;48.722;9.332;2023-10-08T22:11:24;15.70;72.10
43320;DHT22;28914;48.722;9.332;2023-10-08T22:16:44;15.60;72.20
43320;DHT22;28914;48.722;9.332;2023-10-08T22:22:05;15.60;72.30
43320;DHT22;28914;48.722;9.332;2023-10-08T22:27:26;15.50;72.40
43320;DHT22;28914;48.722;9.332;2023-10-08T22:32:56;15.50;72.40
43320;DHT22;28914;48.722;9.332;2023-10-08T22:38:19;15.40;72.90
43320;DHT22;28914;48.722;9.332;2023-10-08T22:43:41;15.30;73.00
43320;DHT22;28914;48.722;9.332;2023-10-08T22:49:04;15.30;73.20
43320;DHT22;28914;48.722;9.332;2023-10-08T22:54:24;15.20;73.30
43320;DHT22;28914;48.722;9.332;2023-10-08T22:59:43;15.10;73.30
43320;DHT22;28914;48.722;9.332;2023-10-08T23:05:04;15.10;73.70
43320;DHT22;28914;48.722;9.332;2023-10-08T23:10:25;15.00;73.70
43320;DHT22;28914;48.722;9.332;2023-10-08T23:15:44;15.00;73.90
43320;DHT22;28914;48.722;9.332;2023-10-08T23:21:08;14.90;74.00
43320;DHT22;28914;48.722;9.332;2023-10-08T23:26:30;14.90;74.10
43320;DHT22;28914;48.722;9.332;2023-10-08T23:31:50;14.80;74.30
43320;DHT22;28914;48.722;9.332;2023-10-08T23:37:08;14.80;74.40
43320;DHT22;28914;48.722;9.332;2023-10-08T23:42:40;14.70;74.40
43320;DHT22;28914;48.722;9.332;2023-10-08T23:48:04;14.60;74.60
43320;DHT22;28914;48.722;9.332;2023-10-08T23:53:38;14.60;74.70
43320;DHT22;28914;48.722;9.332;2023-10-08T23:59:06;14.50;75.50
